createdAt,value
2018-09-02T00:00:09.747Z,12.00
2018-09-02T00:02:38.392Z,12.00
2018-09-02T00:05:07.077Z,12.00
2018-09-02T00:07:35.712Z,12.00
2018-09-02T00:10:05.098Z,12.00
2018-09-02T00:12:33.856Z,12.00
2018-09-02T00:15:02.456Z,12.00
2018-09-02T00:17:31.093Z,11.90
2018-09-02T00:19:59.729Z,11.70
2018-09-02T00:22:28.380Z,11.60
2018-09-02T00:24:58.013Z,11.40
2018-09-02T00:27:26.650Z,11.30
2018-09-02T00:29:55.367Z,11.30
2018-09-02T00:32:24.016Z,11.30
2018-09-02T00:34:52.629Z,11.20
2018-09-02T00:37:21.274Z,11.20
2018-09-02T00:39:49.879Z,11.30
2018-09-02T00:42:18.541Z,11.30
2018-09-02T00:44:47.181Z,11.30
2018-09-02T00:47:15.769Z,11.30
2018-09-02T00:49:44.386Z,11.40
2018-09-02T00:52:13.034Z,11.40
2018-09-02T00:54:41.653Z,11.40
2018-09-02T00:57:10.265Z,11.40
2018-09-02T00:59:39.025Z,11.50
2018-09-02T01:02:07.693Z,11.40
2018-09-02T01:04:36.313Z,11.40
2018-09-02T01:07:05.393Z,11.40
2018-09-02T01:09:34.119Z,11.40
2018-09-02T01:12:02.741Z,11.40
2018-09-02T01:14:31.382Z,11.40
2018-09-02T01:17:00.057Z,11.40
2018-09-02T01:19:29.020Z,11.40
2018-09-02T01:21:57.661Z,11.40
2018-09-02T01:24:26.333Z,11.40
2018-09-02T01:26:54.953Z,11.40
2018-09-02T01:29:23.565Z,11.50
2018-09-02T01:31:52.185Z,11.50
2018-09-02T01:34:20.806Z,11.50
2018-09-02T01:36:49.421Z,11.50
2018-09-02T01:39:18.045Z,11.50
2018-09-02T01:41:46.669Z,11.50
2018-09-02T01:44:15.356Z,11.60
2018-09-02T01:46:44.012Z,11.60
2018-09-02T01:49:12.742Z,11.60
2018-09-02T01:51:41.344Z,11.60
2018-09-02T01:54:30.385Z,11.60
2018-09-02T01:56:59.000Z,11.60
2018-09-02T01:59:27.632Z,11.60
2018-09-02T02:01:56.231Z,11.60
2018-09-02T02:04:28.262Z,11.60
2018-09-02T02:06:56.945Z,11.60
2018-09-02T02:09:25.603Z,11.50
2018-09-02T02:11:54.210Z,11.50
2018-09-02T02:14:22.883Z,11.40
2018-09-02T02:16:51.502Z,11.40
2018-09-02T02:19:20.153Z,11.30
2018-09-02T02:21:48.865Z,11.20
2018-09-02T02:24:23.649Z,11.20
2018-09-02T02:26:52.285Z,11.10
2018-09-02T02:29:20.962Z,11.00
2018-09-02T02:31:49.606Z,10.90
2018-09-02T02:34:18.266Z,10.80
2018-09-02T02:36:46.950Z,10.70
2018-09-02T02:39:15.605Z,10.70
2018-09-02T02:41:44.227Z,10.80
2018-09-02T02:44:12.858Z,10.70
2018-09-02T02:46:41.553Z,10.60
2018-09-02T02:49:10.225Z,10.40
2018-09-02T02:51:38.857Z,10.50
2018-09-02T02:54:07.525Z,10.60
2018-09-02T02:56:36.132Z,10.50
2018-09-02T02:59:05.251Z,10.60
2018-09-02T03:01:33.971Z,10.60
2018-09-02T03:04:02.928Z,10.50
2018-09-02T03:06:31.534Z,10.40
2018-09-02T03:09:00.149Z,10.30
2018-09-02T03:11:28.841Z,10.30
2018-09-02T03:13:57.509Z,10.40
2018-09-02T03:16:26.169Z,10.50
2018-09-02T03:18:54.809Z,10.50
2018-09-02T03:21:23.446Z,10.50
2018-09-02T03:23:52.075Z,10.40
2018-09-02T03:26:20.691Z,10.40
2018-09-02T03:28:49.302Z,10.20
2018-09-02T03:50:55.597Z,10.20
2018-09-02T03:53:24.233Z,10.20
2018-09-02T03:55:52.920Z,10.40
2018-09-02T03:58:22.243Z,10.50
2018-09-02T04:00:50.859Z,10.30
2018-09-02T04:03:19.469Z,10.30
2018-09-02T04:05:48.101Z,10.40
2018-09-02T04:08:16.713Z,10.40
2018-09-02T04:10:45.640Z,10.30
2018-09-02T04:13:14.336Z,10.50
2018-09-02T04:15:42.962Z,10.50
2018-09-02T04:18:11.593Z,10.60
2018-09-02T04:20:40.244Z,10.60
2018-09-02T04:23:08.889Z,10.70
2018-09-02T04:25:37.522Z,10.70
2018-09-02T04:28:06.187Z,10.70
2018-09-02T04:30:34.836Z,10.80
2018-09-02T04:33:03.438Z,10.80
2018-09-02T04:35:32.128Z,10.70
2018-09-02T04:38:00.742Z,10.80
2018-09-02T04:40:29.409Z,10.80
2018-09-02T04:42:58.041Z,10.80
2018-09-02T04:45:26.642Z,10.80
2018-09-02T04:47:55.263Z,10.80
2018-09-02T04:50:23.849Z,10.70
2018-09-02T04:52:52.474Z,10.70
2018-09-02T04:55:21.069Z,10.60
2018-09-02T04:57:49.685Z,10.60
2018-09-02T05:00:18.300Z,10.60
2018-09-02T05:02:46.929Z,10.50
2018-09-02T05:05:15.521Z,10.50
2018-09-02T05:07:44.172Z,10.60
2018-09-02T05:10:12.802Z,10.60
2018-09-02T05:12:41.445Z,10.60
2018-09-02T05:15:10.088Z,10.60
2018-09-02T05:17:38.789Z,10.60
2018-09-02T05:20:07.520Z,10.60
2018-09-02T05:22:36.230Z,10.70
2018-09-02T05:25:04.929Z,10.80
2018-09-02T05:27:33.664Z,10.80
2018-09-02T05:30:02.276Z,10.80
2018-09-02T05:32:30.952Z,10.80
2018-09-02T05:34:59.572Z,10.80
2018-09-02T05:37:28.196Z,10.80
2018-09-02T05:39:56.782Z,10.90
2018-09-02T05:42:25.392Z,10.90
2018-09-02T05:44:54.003Z,11.00
2018-09-02T05:47:22.638Z,11.10
2018-09-02T05:49:51.237Z,11.10
2018-09-02T05:52:19.885Z,11.20
2018-09-02T05:54:48.493Z,11.30
2018-09-02T05:57:17.158Z,11.30
2018-09-02T05:59:45.771Z,11.40
2018-09-02T06:02:14.470Z,11.40
2018-09-02T06:04:43.070Z,11.50
2018-09-02T06:07:11.702Z,11.50
2018-09-02T06:09:40.288Z,11.60
2018-09-02T06:12:08.915Z,11.70
2018-09-02T06:14:37.497Z,11.70
2018-09-02T06:17:06.221Z,11.70
2018-09-02T06:19:34.854Z,11.80
2018-09-02T06:22:03.486Z,11.90
2018-09-02T06:24:32.124Z,11.90
2018-09-02T06:27:00.794Z,12.00
2018-09-02T06:29:29.369Z,12.00
2018-09-02T06:31:57.989Z,12.10
2018-09-02T06:34:26.630Z,12.20
2018-09-02T06:36:55.294Z,12.40
2018-09-02T06:39:23.927Z,12.40
2018-09-02T06:41:52.534Z,12.60
2018-09-02T06:44:21.302Z,12.60
2018-09-02T06:46:49.976Z,12.70
2018-09-02T06:49:18.572Z,12.80
2018-09-02T06:51:47.243Z,12.90
2018-09-02T06:54:15.984Z,13.00
2018-09-02T06:56:44.632Z,13.10
2018-09-02T06:59:13.304Z,13.20
2018-09-02T07:01:41.884Z,13.20
2018-09-02T07:04:10.500Z,13.20
2018-09-02T07:06:39.181Z,13.40
2018-09-02T07:09:07.785Z,13.60
2018-09-02T07:11:36.402Z,13.60
2018-09-02T07:14:05.126Z,13.60
2018-09-02T07:16:33.824Z,13.60
2018-09-02T07:19:02.466Z,13.70
2018-09-02T07:21:31.091Z,13.80
2018-09-02T07:23:59.752Z,13.90
2018-09-02T07:26:28.381Z,14.10
2018-09-02T07:28:57.051Z,14.20
2018-09-02T07:31:25.801Z,14.40
2018-09-02T07:33:54.546Z,14.50
2018-09-02T07:36:23.182Z,14.60
2018-09-02T07:38:51.865Z,14.80
2018-09-02T07:41:20.717Z,14.90
2018-09-02T07:43:49.568Z,15.00
2018-09-02T07:46:18.094Z,15.10
2018-09-02T07:48:46.716Z,15.30
2018-09-02T07:51:15.353Z,15.40
2018-09-02T07:53:43.988Z,15.50
2018-09-02T07:56:13.606Z,15.60
2018-09-02T07:58:42.266Z,15.80
2018-09-02T08:01:10.868Z,16.00
2018-09-02T08:03:39.514Z,16.10
2018-09-02T08:06:08.134Z,16.30
2018-09-02T08:08:36.793Z,16.50
2018-09-02T08:11:05.441Z,16.60
2018-09-02T08:13:34.081Z,16.80
2018-09-02T08:16:02.707Z,16.90
2018-09-02T08:18:31.363Z,17.00
2018-09-02T08:20:59.963Z,17.20
2018-09-02T08:23:28.686Z,17.30
2018-09-02T08:25:57.315Z,17.40
2018-09-02T08:28:25.993Z,17.50
2018-09-02T08:30:54.705Z,17.60
2018-09-02T08:33:23.348Z,17.80
2018-09-02T08:35:51.997Z,18.00
2018-09-02T08:38:20.647Z,18.20
2018-09-02T08:40:49.422Z,18.30
2018-09-02T08:43:18.061Z,18.30
2018-09-02T08:45:46.657Z,18.30
2018-09-02T08:48:15.277Z,18.60
2018-09-02T08:50:43.881Z,18.70
2018-09-02T08:53:12.514Z,19.10
2018-09-02T08:55:41.118Z,19.50
2018-09-02T08:58:09.755Z,19.50
2018-09-02T09:00:38.342Z,20.00
2018-09-02T09:03:07.026Z,20.00
2018-09-02T09:05:35.669Z,20.10
2018-09-02T09:08:04.479Z,20.00
2018-09-02T09:10:32.977Z,19.80
2018-09-02T09:13:01.615Z,19.70
2018-09-02T09:15:30.225Z,19.60
2018-09-02T09:17:58.845Z,19.80
2018-09-02T09:20:27.537Z,19.50
2018-09-02T09:22:56.194Z,19.90
2018-09-02T09:25:24.846Z,20.20
2018-09-02T09:27:53.441Z,20.30
2018-09-02T09:30:22.083Z,20.30
2018-09-02T09:32:50.678Z,20.50
2018-09-02T09:35:19.327Z,21.00
2018-09-02T09:37:47.957Z,20.80
2018-09-02T09:40:16.566Z,20.50
2018-09-02T09:42:45.161Z,20.10
2018-09-02T09:45:13.789Z,19.70
2018-09-02T09:47:42.378Z,19.80
2018-09-02T09:50:11.033Z,19.90
2018-09-02T09:52:39.623Z,19.80
2018-09-02T09:55:08.285Z,19.60
2018-09-02T09:57:37.204Z,19.10
2018-09-02T10:00:05.882Z,18.90
2018-09-02T10:02:34.478Z,19.00
2018-09-02T10:05:03.128Z,19.00
2018-09-02T10:07:31.785Z,19.30
2018-09-02T10:10:00.480Z,19.20
2018-09-02T10:12:29.119Z,18.80
2018-09-02T10:14:57.745Z,18.70
2018-09-02T10:17:26.355Z,19.10
2018-09-02T10:19:54.982Z,19.60
2018-09-02T10:22:23.625Z,20.10
2018-09-02T10:24:52.290Z,20.40
2018-09-02T10:27:20.938Z,20.50
2018-09-02T10:29:49.545Z,20.70
2018-09-02T10:32:18.150Z,20.10
2018-09-02T10:34:46.773Z,20.00
2018-09-02T10:37:15.386Z,19.70
2018-09-02T10:39:43.989Z,20.20
2018-09-02T10:42:12.651Z,20.00
2018-09-02T10:44:41.274Z,20.00
2018-09-02T10:47:09.885Z,19.80
2018-09-02T10:49:38.616Z,19.50
2018-09-02T10:52:07.374Z,19.20
2018-09-02T10:54:36.000Z,19.90
2018-09-02T10:57:04.625Z,20.00
2018-09-02T10:59:33.463Z,19.50
2018-09-02T11:02:02.019Z,19.60
2018-09-02T11:04:30.734Z,19.80
2018-09-02T11:06:59.353Z,20.10
2018-09-02T11:09:28.014Z,20.40
2018-09-02T11:11:56.674Z,19.90
2018-09-02T11:14:25.314Z,20.00
2018-09-02T11:16:53.937Z,20.00
2018-09-02T11:19:22.583Z,20.40
2018-09-02T11:21:51.235Z,20.10
2018-09-02T11:24:19.902Z,20.00
2018-09-02T11:26:48.536Z,20.20
2018-09-02T11:29:17.246Z,20.50
2018-09-02T11:31:45.862Z,20.40
2018-09-02T11:34:14.453Z,20.60
2018-09-02T11:36:43.060Z,20.40
2018-09-02T11:39:11.669Z,20.10
2018-09-02T11:41:40.292Z,20.60
2018-09-02T11:44:09.450Z,20.60
2018-09-02T11:46:38.356Z,20.40
2018-09-02T11:49:07.333Z,21.10
2018-09-02T11:51:36.041Z,21.10
2018-09-02T11:54:04.659Z,21.30
2018-09-02T11:56:33.269Z,21.10
2018-09-02T11:59:01.914Z,20.40
2018-09-02T12:01:30.664Z,20.30
2018-09-02T12:03:59.384Z,20.50
2018-09-02T12:06:28.038Z,20.30
2018-09-02T12:08:56.684Z,20.30
2018-09-02T12:11:25.336Z,20.60
2018-09-02T12:13:53.973Z,20.60
2018-09-02T12:16:22.687Z,20.90
2018-09-02T12:18:51.322Z,21.00
2018-09-02T12:21:19.986Z,20.80
2018-09-02T12:23:48.621Z,20.80
2018-09-02T12:26:17.323Z,20.40
2018-09-02T12:28:45.974Z,20.50
2018-09-02T12:31:14.599Z,20.60
2018-09-02T12:33:43.253Z,20.40
2018-09-02T12:36:11.879Z,20.70
2018-09-02T12:38:40.526Z,20.80
2018-09-02T12:41:09.163Z,20.70
2018-09-02T12:43:37.770Z,20.80
2018-09-02T12:46:06.458Z,20.50
2018-09-02T12:48:35.097Z,19.90
2018-09-02T12:51:03.784Z,19.60
2018-09-02T12:53:32.394Z,20.20
2018-09-02T12:56:01.083Z,20.60
2018-09-02T12:58:29.675Z,20.30
2018-09-02T13:00:58.310Z,20.30
2018-09-02T13:03:26.934Z,20.60
2018-09-02T13:05:55.575Z,20.20
2018-09-02T13:08:24.162Z,19.40
2018-09-02T13:10:52.733Z,19.50
2018-09-02T13:13:21.309Z,19.80
2018-09-02T13:15:49.974Z,19.50
2018-09-02T13:18:18.523Z,19.60
2018-09-02T13:20:47.102Z,19.90
2018-09-02T13:23:15.710Z,20.30
2018-09-02T13:25:44.305Z,20.30
2018-09-02T13:28:12.933Z,20.60
2018-09-02T13:30:41.557Z,20.80
2018-09-02T13:33:10.185Z,20.60
2018-09-02T13:35:38.819Z,20.50
2018-09-02T13:38:07.398Z,20.00
2018-09-02T13:40:36.001Z,20.20
2018-09-02T13:43:04.761Z,20.00
2018-09-02T13:45:33.398Z,19.90
2018-09-02T13:48:01.992Z,19.80
2018-09-02T13:50:30.647Z,19.40
2018-09-02T13:52:59.278Z,19.60
2018-09-02T13:55:27.941Z,19.30
2018-09-02T13:57:56.569Z,19.50
2018-09-02T14:00:25.177Z,19.50
2018-09-02T14:02:53.802Z,19.50
2018-09-02T14:05:22.401Z,19.70
2018-09-02T14:07:51.881Z,19.70
2018-09-02T14:10:20.423Z,19.70
2018-09-02T14:12:49.048Z,19.90
2018-09-02T14:15:17.744Z,19.90
2018-09-02T14:17:46.428Z,20.10
2018-09-02T14:20:15.029Z,20.00
2018-09-02T14:22:43.773Z,19.90
2018-09-02T14:25:12.422Z,19.80
2018-09-02T14:27:41.073Z,19.90
2018-09-02T14:30:09.781Z,19.40
2018-09-02T14:32:38.519Z,19.40
2018-09-02T14:35:07.150Z,19.30
2018-09-02T14:37:35.807Z,18.80
2018-09-02T14:40:04.552Z,18.90
2018-09-02T14:42:33.222Z,19.00
2018-09-02T14:45:01.881Z,18.80
2018-09-02T14:47:30.526Z,18.70
2018-09-02T14:49:59.221Z,18.80
2018-09-02T14:52:27.838Z,18.90
2018-09-02T14:54:56.521Z,18.70
2018-09-02T14:57:25.194Z,18.80
2018-09-02T14:59:53.811Z,19.00
2018-09-02T15:02:22.467Z,19.20
2018-09-02T15:04:51.091Z,19.20
2018-09-02T15:07:19.735Z,19.10
2018-09-02T15:09:48.374Z,19.00
2018-09-02T15:12:17.057Z,18.80
2018-09-02T15:14:45.743Z,19.00
2018-09-02T15:17:14.416Z,19.20
2018-09-02T15:19:43.029Z,19.30
2018-09-02T15:22:11.738Z,19.40
2018-09-02T15:24:40.345Z,19.70
2018-09-02T15:27:09.147Z,19.60
2018-09-02T15:29:37.836Z,19.80
2018-09-02T15:32:06.566Z,20.10
2018-09-02T15:34:35.170Z,20.00
2018-09-02T15:37:03.934Z,19.90
2018-09-02T15:39:32.599Z,19.80
2018-09-02T15:42:01.234Z,19.90
2018-09-02T15:44:29.909Z,19.80
2018-09-02T15:46:58.555Z,20.00
2018-09-02T15:49:27.148Z,20.10
2018-09-02T15:51:55.769Z,20.00
2018-09-02T15:54:24.355Z,19.70
2018-09-02T15:56:53.049Z,19.60
2018-09-02T15:59:21.774Z,19.80
2018-09-02T16:01:50.395Z,19.70
2018-09-02T16:04:19.014Z,19.90
2018-09-02T16:06:47.690Z,19.80
2018-09-02T16:09:16.381Z,19.70
2018-09-02T16:11:45.014Z,19.50
2018-09-02T16:14:13.685Z,19.30
2018-09-02T16:16:42.310Z,19.40
2018-09-02T16:19:10.946Z,19.30
2018-09-02T16:21:39.548Z,19.40
2018-09-02T16:24:08.239Z,19.50
2018-09-02T16:26:36.876Z,19.50
2018-09-02T16:29:05.638Z,19.20
2018-09-02T16:31:34.269Z,19.20
2018-09-02T16:34:02.936Z,19.40
2018-09-02T16:36:31.605Z,19.20
2018-09-02T16:39:00.295Z,19.20
2018-09-02T16:41:28.982Z,19.10
2018-09-02T16:43:57.569Z,19.10
2018-09-02T16:46:26.225Z,19.10
2018-09-02T16:48:54.981Z,18.90
2018-09-02T16:51:23.621Z,18.80
2018-09-02T16:53:52.345Z,18.70
2018-09-02T16:56:20.991Z,18.60
2018-09-02T16:58:49.698Z,18.60
2018-09-02T17:01:18.301Z,18.60
2018-09-02T17:03:52.190Z,18.50
2018-09-02T17:06:20.777Z,18.40
2018-09-02T17:08:49.418Z,18.30
2018-09-02T17:11:18.055Z,18.10
2018-09-02T17:13:46.711Z,18.10
2018-09-02T17:16:15.429Z,17.90
2018-09-02T17:18:44.939Z,17.80
2018-09-02T17:21:13.642Z,17.90
2018-09-02T17:23:42.334Z,18.00
2018-09-02T17:26:11.054Z,17.90
2018-09-02T17:28:39.713Z,17.90
2018-09-02T17:31:08.290Z,17.90
2018-09-02T17:33:36.947Z,17.70
2018-09-02T17:36:05.537Z,17.60
2018-09-02T17:38:34.301Z,17.60
2018-09-02T17:41:02.989Z,17.50
2018-09-02T17:43:31.620Z,17.50
2018-09-02T17:46:00.320Z,17.40
2018-09-02T17:48:28.949Z,17.40
2018-09-02T17:50:57.577Z,17.30
2018-09-02T17:53:26.320Z,17.30
2018-09-02T17:55:55.018Z,17.30
2018-09-02T17:58:23.634Z,17.30
2018-09-02T18:00:54.249Z,17.30
2018-09-02T18:03:22.885Z,17.10
2018-09-02T18:05:51.506Z,17.20
2018-09-02T18:08:20.176Z,17.10
2018-09-02T18:10:48.860Z,17.10
2018-09-02T18:13:17.686Z,17.00
2018-09-02T18:15:46.351Z,17.00
2018-09-02T18:18:15.044Z,17.00
2018-09-02T18:20:43.698Z,17.00
2018-09-02T18:23:12.511Z,17.00
2018-09-02T18:25:41.146Z,16.90
2018-09-02T18:28:12.476Z,16.90
2018-09-02T18:30:41.116Z,16.80
2018-09-02T18:33:09.732Z,16.80
2018-09-02T18:35:38.369Z,16.80
2018-09-02T18:38:06.971Z,16.80
2018-09-02T19:08:01.112Z,16.10
2018-09-02T19:10:29.759Z,16.10
2018-09-02T19:12:58.381Z,16.20
2018-09-02T19:15:27.018Z,16.20
2018-09-02T19:17:55.624Z,16.30
2018-09-02T19:20:24.319Z,16.40
2018-09-02T19:22:53.033Z,16.40
2018-09-02T19:25:21.667Z,16.50
2018-09-02T19:27:50.320Z,16.50
2018-09-02T19:30:18.982Z,16.60
2018-09-02T19:32:47.612Z,16.60
2018-09-02T19:35:16.302Z,16.60
2018-09-02T19:37:45.030Z,16.70
2018-09-02T19:40:14.277Z,16.70
2018-09-02T19:42:43.001Z,16.60
2018-09-02T19:45:11.686Z,16.60
2018-09-02T19:47:40.343Z,16.60
2018-09-02T19:50:09.094Z,16.50
2018-09-02T19:52:37.766Z,16.30
2018-09-02T19:55:06.529Z,16.30
2018-09-02T19:57:35.205Z,16.30
2018-09-02T20:00:03.953Z,16.20
2018-09-02T20:02:32.686Z,16.20
2018-09-02T20:05:01.319Z,16.00
2018-09-02T20:07:29.973Z,16.10
2018-09-02T20:09:58.610Z,16.00
2018-09-02T20:12:27.301Z,16.10
2018-09-02T20:14:55.939Z,16.10
2018-09-02T20:17:24.580Z,16.30
2018-09-02T20:19:53.200Z,16.10
2018-09-02T20:22:21.874Z,16.10
2018-09-02T20:24:50.475Z,16.10
2018-09-02T20:27:19.118Z,16.20
2018-09-02T20:29:47.721Z,16.00
2018-09-02T20:32:16.377Z,16.00
2018-09-02T20:34:45.011Z,15.90
2018-09-02T20:37:13.633Z,15.80
2018-09-02T20:39:42.333Z,16.00
2018-09-02T20:42:10.954Z,15.90
2018-09-02T20:44:39.523Z,15.80
2018-09-02T20:47:08.093Z,15.70
2018-09-02T20:49:36.688Z,15.60
2018-09-02T20:52:05.278Z,15.70
2018-09-02T20:54:34.038Z,15.70
2018-09-02T20:57:02.648Z,15.80
2018-09-02T20:59:31.348Z,15.90
2018-09-02T21:02:00.074Z,15.90
2018-09-02T21:04:28.763Z,15.80
2018-09-02T21:06:57.370Z,15.70
2018-09-02T21:09:26.020Z,15.70
2018-09-02T21:11:54.672Z,15.80
2018-09-02T21:14:23.323Z,15.70
2018-09-02T21:16:51.952Z,15.60
2018-09-02T21:19:20.618Z,15.60
2018-09-02T21:21:49.273Z,15.70
2018-09-02T21:24:17.942Z,15.80
2018-09-02T21:26:46.550Z,15.80
2018-09-02T21:29:15.154Z,15.70
2018-09-02T21:31:43.743Z,15.70
2018-09-02T21:34:12.398Z,15.70
2018-09-02T21:36:41.006Z,15.80
2018-09-02T21:39:10.112Z,15.90
2018-09-02T21:41:38.744Z,15.80
2018-09-02T21:44:07.350Z,15.80
2018-09-02T21:46:36.099Z,15.80
2018-09-02T21:49:04.713Z,15.80
2018-09-02T21:51:33.382Z,15.90
2018-09-02T21:54:01.997Z,15.80
2018-09-02T21:56:30.629Z,15.70
2018-09-02T21:58:59.233Z,15.70
2018-09-02T22:01:27.889Z,15.70
2018-09-02T22:03:56.465Z,15.70
2018-09-02T22:06:25.071Z,15.50
2018-09-02T22:08:53.680Z,15.40
2018-09-02T22:11:22.305Z,15.50
2018-09-02T22:13:50.933Z,15.50
2018-09-02T22:16:19.623Z,15.50
2018-09-02T22:18:48.246Z,15.40
2018-09-02T22:21:16.883Z,15.40
2018-09-02T22:23:45.536Z,15.50
2018-09-02T22:26:14.124Z,15.60
2018-09-02T22:28:42.764Z,15.60
2018-09-02T22:31:11.364Z,15.70
2018-09-02T22:33:39.995Z,15.80
2018-09-02T22:36:08.600Z,15.70
2018-09-02T22:38:37.185Z,15.60
2018-09-02T22:41:05.918Z,15.60
2018-09-02T22:43:34.501Z,15.70
2018-09-02T22:46:03.133Z,15.70
2018-09-02T22:48:31.753Z,15.70
2018-09-02T22:51:00.351Z,15.70
2018-09-02T22:53:28.926Z,15.60
2018-09-02T22:55:57.547Z,15.60
2018-09-02T22:58:26.152Z,15.50
2018-09-02T23:00:54.811Z,15.60
2018-09-02T23:03:23.408Z,15.70
2018-09-02T23:05:52.029Z,15.70
2018-09-02T23:08:20.663Z,15.60
2018-09-02T23:10:49.313Z,15.60
2018-09-02T23:13:17.937Z,15.60
2018-09-02T23:15:46.580Z,15.70
2018-09-02T23:18:15.185Z,15.70
2018-09-02T23:20:43.860Z,15.60
2018-09-02T23:23:12.562Z,15.60
2018-09-02T23:25:41.402Z,15.60
2018-09-02T23:28:10.779Z,15.60
2018-09-02T23:30:39.444Z,15.60
2018-09-02T23:33:08.119Z,15.60
2018-09-02T23:35:36.766Z,15.70
2018-09-02T23:38:05.673Z,15.60
2018-09-02T23:40:34.318Z,15.60
2018-09-02T23:43:02.977Z,15.60
2018-09-02T23:45:31.597Z,15.60
2018-09-02T23:48:00.241Z,15.50
2018-09-02T23:50:28.871Z,15.50
2018-09-02T23:52:57.505Z,15.50
2018-09-02T23:55:26.140Z,15.50
2018-09-02T23:57:54.834Z,15.50
